createdAt,value
2023-04-02T00:00:17.991Z,6.18
2023-04-02T00:05:31.726Z,5.58
2023-04-02T00:10:38.836Z,5.64
2023-04-02T00:15:45.027Z,5.93
2023-04-02T00:20:52.216Z,5.90
2023-04-02T00:25:56.372Z,5.69
2023-04-02T00:31:01.128Z,6.16
2023-04-02T00:36:08.440Z,5.98
2023-04-02T00:41:17.449Z,6.13
2023-04-02T00:46:24.233Z,5.58
2023-04-02T00:51:30.702Z,5.48
2023-04-02T00:56:41.228Z,5.47
2023-04-02T01:01:44.815Z,6.07
2023-04-02T01:06:53.449Z,6.04
2023-04-02T01:12:20.688Z,5.67
2023-04-02T01:17:39.853Z,6.37
2023-04-02T01:22:49.553Z,6.03
2023-04-02T01:28:04.863Z,6.26
2023-04-02T01:33:09.168Z,6.03
2023-04-02T01:38:18.859Z,6.12
2023-04-02T01:43:29.454Z,5.46
2023-04-02T01:48:33.686Z,5.46
2023-04-02T01:53:36.470Z,5.73
2023-04-02T01:58:39.582Z,5.76
2023-04-02T02:03:45.244Z,6.17
2023-04-02T02:08:53.494Z,5.99
2023-04-02T02:13:58.886Z,5.93
2023-04-02T02:19:05.469Z,5.82
2023-04-02T02:24:16.224Z,5.86
2023-04-02T02:29:21.830Z,5.78
2023-04-02T02:34:32.673Z,6.02
2023-04-02T02:39:39.333Z,6.10
2023-04-02T02:44:47.580Z,5.87
2023-04-02T02:49:53.547Z,5.84
2023-04-02T02:55:02.610Z,6.04
2023-04-02T03:00:19.522Z,5.96
2023-04-02T03:05:27.768Z,6.33
2023-04-02T03:10:40.383Z,6.20
2023-04-02T03:15:52.421Z,6.54
2023-04-02T03:21:01.631Z,6.28
2023-04-02T03:26:09.715Z,6.39
2023-04-02T03:31:18.602Z,6.25
2023-04-02T03:36:29.473Z,6.15
2023-04-02T03:41:40.322Z,6.38
2023-04-02T03:46:47.185Z,5.67
2023-04-02T03:51:58.571Z,6.08
2023-04-02T03:57:02.275Z,6.15
2023-04-02T04:02:16.527Z,5.89
2023-04-02T04:07:29.846Z,6.11
2023-04-02T04:12:35.763Z,5.84
2023-04-02T04:17:54.724Z,6.25
2023-04-02T04:23:18.587Z,5.90
2023-04-02T04:28:27.668Z,5.52
2023-04-02T04:33:40.249Z,5.86
2023-04-02T04:38:55.477Z,5.40
2023-04-02T04:44:05.785Z,5.69
2023-04-02T04:49:13.245Z,6.06
2023-04-02T04:54:18.568Z,6.16
2023-04-02T04:59:30.992Z,6.33
2023-04-02T05:04:36.934Z,6.21
2023-04-02T05:09:47.014Z,6.84
2023-04-02T05:14:57.629Z,6.58
2023-04-02T05:20:08.086Z,7.47
2023-04-02T05:25:20.299Z,7.40
2023-04-02T05:30:47.083Z,7.66
2023-04-02T05:35:58.499Z,7.02
2023-04-02T05:41:06.555Z,7.23
2023-04-02T05:46:17.544Z,7.03
2023-04-02T05:51:25.753Z,7.42
2023-04-02T05:56:35.940Z,7.26
2023-04-02T06:01:45.419Z,7.99
2023-04-02T06:07:06.528Z,8.14
2023-04-02T06:12:26.424Z,8.15
2023-04-02T06:17:30.698Z,9.26
2023-04-02T06:22:38.390Z,10.89
2023-04-02T06:27:46.781Z,10.49
2023-04-02T06:32:55.962Z,10.92
2023-04-02T06:38:03.720Z,13.46
2023-04-02T06:43:17.577Z,15.22
2023-04-02T06:48:40.308Z,18.60
2023-04-02T06:53:46.611Z,18.44
2023-04-02T06:58:52.970Z,15.38
2023-04-02T07:03:57.582Z,12.66
2023-04-02T07:09:09.148Z,12.42
2023-04-02T07:14:16.729Z,12.04
2023-04-02T07:19:23.206Z,11.91
2023-04-02T07:24:30.553Z,12.70
2023-04-02T07:29:34.678Z,14.47
2023-04-02T07:34:37.782Z,15.11
2023-04-02T07:39:40.821Z,14.56
2023-04-02T07:44:45.209Z,12.55
2023-04-02T07:49:48.027Z,12.59
2023-04-02T07:54:51.226Z,13.88
2023-04-02T07:59:56.602Z,9.56
2023-04-02T08:04:59.412Z,9.38
2023-04-02T08:10:02.427Z,10.25
2023-04-02T08:15:08.010Z,9.75
2023-04-02T08:20:17.973Z,9.19
2023-04-02T08:25:20.763Z,9.67
2023-04-02T08:30:24.954Z,9.45
2023-04-02T08:35:27.822Z,9.76
2023-04-02T08:40:36.389Z,10.36
2023-04-02T08:45:48.300Z,12.18
2023-04-02T08:50:52.207Z,11.43
2023-04-02T08:56:05.737Z,10.74
2023-04-02T09:01:18.501Z,10.80
2023-04-02T09:06:22.613Z,9.83
2023-04-02T09:11:28.772Z,9.85
2023-04-02T09:16:45.120Z,10.39
2023-04-02T09:22:02.375Z,10.57
2023-04-02T09:27:05.642Z,10.88
2023-04-02T09:32:22.706Z,11.18
2023-04-02T09:37:25.488Z,11.03
2023-04-02T09:42:38.203Z,11.26
2023-04-02T09:47:42.679Z,11.24
2023-04-02T09:52:45.548Z,10.98
2023-04-02T09:57:49.720Z,11.29
2023-04-02T10:03:06.116Z,11.12
2023-04-02T10:08:17.772Z,11.30
2023-04-02T10:13:25.535Z,11.08
2023-04-02T10:18:42.771Z,10.66
2023-04-02T10:23:46.043Z,10.95
2023-04-02T10:29:06.702Z,11.43
2023-04-02T10:34:16.468Z,11.53
2023-04-02T10:39:22.744Z,12.33
2023-04-02T10:44:43.186Z,12.28
2023-04-02T10:49:54.910Z,11.37
2023-04-02T10:55:03.028Z,11.70
2023-04-02T11:00:22.272Z,11.89
2023-04-02T11:05:37.139Z,11.73
2023-04-02T11:10:46.283Z,12.19
2023-04-02T11:15:49.303Z,11.74
2023-04-02T11:21:03.543Z,11.86
2023-04-02T11:26:33.725Z,12.36
2023-04-02T11:31:36.958Z,12.74
2023-04-02T11:37:04.061Z,12.37
2023-04-02T11:42:24.903Z,12.79
2023-04-02T11:47:28.656Z,11.91
2023-04-02T11:52:37.688Z,11.76
2023-04-02T11:58:06.900Z,11.38
2023-04-02T12:03:32.084Z,11.81
2023-04-02T12:08:57.208Z,11.95
2023-04-02T12:14:01.448Z,11.75
2023-04-02T12:19:10.415Z,12.12
2023-04-02T12:24:22.139Z,12.51
2023-04-02T12:29:26.525Z,12.07
2023-04-02T12:34:31.378Z,11.94
2023-04-02T12:39:37.285Z,11.82
2023-04-02T12:44:50.057Z,11.94
2023-04-02T12:49:54.194Z,12.24
2023-04-02T12:55:00.441Z,11.46
2023-04-02T13:00:25.568Z,11.60
2023-04-02T13:05:37.272Z,11.50
2023-04-02T13:10:41.830Z,11.24
2023-04-02T13:15:44.736Z,11.30
2023-04-02T13:20:57.345Z,11.08
2023-04-02T13:26:03.913Z,11.78
2023-04-02T13:31:07.268Z,11.64
2023-04-02T13:36:13.777Z,12.16
2023-04-02T13:41:23.699Z,11.44
2023-04-02T13:46:28.449Z,11.96
2023-04-02T13:51:37.232Z,11.96
2023-04-02T13:56:41.447Z,11.25
2023-04-02T14:01:47.448Z,12.02
2023-04-02T14:07:25.979Z,11.68
2023-04-02T14:12:49.670Z,11.69
2023-04-02T14:18:05.794Z,11.82
2023-04-02T14:23:23.502Z,11.85
2023-04-02T14:28:40.360Z,11.31
2023-04-02T14:33:50.432Z,10.97
2023-04-02T14:38:59.088Z,11.10
2023-04-02T14:44:07.258Z,11.74
2023-04-02T14:49:23.921Z,11.32
2023-04-02T14:54:34.065Z,11.83
2023-04-02T14:59:43.931Z,11.18
2023-04-02T15:04:59.494Z,11.32
2023-04-02T15:10:11.704Z,11.40
2023-04-02T15:15:33.097Z,11.02
2023-04-02T15:20:53.005Z,11.30
2023-04-02T15:26:04.385Z,11.20
2023-04-02T15:31:14.268Z,11.27
2023-04-02T15:36:45.559Z,10.72
2023-04-02T15:42:03.511Z,10.57
2023-04-02T15:47:15.298Z,11.98
2023-04-02T15:52:26.664Z,11.12
2023-04-02T15:57:46.734Z,10.38
2023-04-02T16:03:17.346Z,11.21
2023-04-02T16:08:33.758Z,10.14
2023-04-02T16:13:38.244Z,10.44
2023-04-02T16:18:51.155Z,10.51
2023-04-02T16:23:54.336Z,10.66
2023-04-02T16:29:10.033Z,10.44
2023-04-02T16:34:17.807Z,10.12
2023-04-02T16:39:31.157Z,10.27
2023-04-02T16:44:45.661Z,10.49
2023-04-02T16:50:02.418Z,9.75
2023-04-02T16:55:23.495Z,9.93
2023-04-02T17:00:33.404Z,9.76
2023-04-02T17:05:54.398Z,9.37
2023-04-02T17:11:00.790Z,9.07
2023-04-02T17:16:10.824Z,9.79
2023-04-02T17:21:19.522Z,9.91
2023-04-02T17:26:24.454Z,9.72
2023-04-02T17:31:34.081Z,9.25
2023-04-02T17:36:48.380Z,9.32
2023-04-02T17:41:57.880Z,9.35
2023-04-02T17:47:09.196Z,9.17
2023-04-02T17:52:19.926Z,8.74
2023-04-02T17:57:47.280Z,9.13
2023-04-02T18:03:08.580Z,8.73
2023-04-02T18:08:22.613Z,8.45
2023-04-02T18:13:35.580Z,8.45
2023-04-02T18:19:03.414Z,9.02
2023-04-02T18:24:29.245Z,8.35
2023-04-02T18:29:42.246Z,8.30
2023-04-02T18:35:15.229Z,8.93
2023-04-02T18:40:38.619Z,8.58
2023-04-02T18:45:56.217Z,8.50
2023-04-02T18:51:01.300Z,7.72
2023-04-02T18:56:12.076Z,8.03
2023-04-02T19:01:19.393Z,8.07
2023-04-02T19:06:27.054Z,7.80
2023-04-02T19:11:31.530Z,7.38
2023-04-02T19:17:06.362Z,7.43
2023-04-02T19:22:21.924Z,7.68
2023-04-02T19:27:32.834Z,7.63
2023-04-02T19:32:46.217Z,7.79
2023-04-02T19:37:57.094Z,8.00
2023-04-02T19:43:01.353Z,7.99
2023-04-02T19:48:12.424Z,7.58
2023-04-02T19:53:16.093Z,7.40
2023-04-02T19:58:28.370Z,7.31
2023-04-02T20:03:31.426Z,7.52
2023-04-02T20:08:36.114Z,7.28
2023-04-02T20:13:40.375Z,7.35
2023-04-02T20:18:43.978Z,7.46
2023-04-02T20:23:46.898Z,7.41
2023-04-02T20:28:51.335Z,7.43
2023-04-02T20:33:56.547Z,7.49
2023-04-02T20:38:59.723Z,8.01
2023-04-02T20:44:04.183Z,7.40
2023-04-02T20:49:07.168Z,7.20
2023-04-02T20:54:09.936Z,7.54
2023-04-02T20:59:14.141Z,7.00
2023-04-02T21:04:17.424Z,7.39
2023-04-02T21:09:21.329Z,7.56
2023-04-02T21:14:25.455Z,7.55
2023-04-02T21:19:28.291Z,7.76
2023-04-02T21:24:31.223Z,7.47
2023-04-02T21:29:35.485Z,7.37
2023-04-02T21:34:38.306Z,7.30
2023-04-02T21:39:41.508Z,7.22
2023-04-02T21:44:45.697Z,7.21
2023-04-02T21:49:48.473Z,7.29
2023-04-02T21:54:51.279Z,7.43
2023-04-02T21:59:56.972Z,7.12
2023-04-02T22:04:59.805Z,7.50
2023-04-02T22:10:02.633Z,7.59
2023-04-02T22:15:07.727Z,7.52
2023-04-02T22:20:11.460Z,7.44
2023-04-02T22:25:14.286Z,7.57
2023-04-02T22:30:18.782Z,7.30
2023-04-02T22:35:21.524Z,7.14
2023-04-02T22:40:24.325Z,6.89
2023-04-02T22:45:28.758Z,6.74
2023-04-02T22:50:31.559Z,6.81
2023-04-02T22:55:34.268Z,6.63
2023-04-02T23:00:39.257Z,7.05
2023-04-02T23:05:42.381Z,6.58
2023-04-02T23:10:45.187Z,7.01
2023-04-02T23:15:49.348Z,6.74
2023-04-02T23:20:52.165Z,7.03
2023-04-02T23:26:04.369Z,6.85
2023-04-02T23:31:15.785Z,6.37
2023-04-02T23:36:22.430Z,6.16
2023-04-02T23:41:26.795Z,6.24
2023-04-02T23:46:32.228Z,6.22
2023-04-02T23:51:35.024Z,6.40
2023-04-02T23:56:37.821Z,6.04
